createdAt,value
2022-07-29T00:01:44.064Z,8.32
2022-07-29T00:04:12.679Z,8.27
2022-07-29T00:06:42.253Z,7.85
2022-07-29T00:09:10.522Z,8.48
2022-07-29T00:11:38.791Z,8.15
2022-07-29T00:14:07.345Z,8.35
2022-07-29T00:16:37.263Z,8.18
2022-07-29T00:19:05.991Z,9.40
2022-07-29T00:21:36.208Z,8.40
2022-07-29T00:24:04.832Z,7.45
2022-07-29T00:26:33.675Z,8.75
2022-07-29T00:29:32.637Z,9.18
2022-07-29T00:31:52.612Z,7.55
2022-07-29T00:34:38.785Z,8.27
2022-07-29T00:37:07.940Z,8.07
2022-07-29T00:39:36.421Z,8.27
2022-07-29T00:42:05.638Z,7.78
2022-07-29T00:44:38.847Z,8.32
2022-07-29T00:47:09.260Z,7.97
2022-07-29T00:49:38.278Z,9.07
2022-07-29T00:52:07.525Z,7.65
2022-07-29T00:54:43.917Z,7.93
2022-07-29T00:57:14.235Z,7.78
2022-07-29T00:59:42.862Z,7.40
2022-07-29T01:02:12.640Z,8.80
2022-07-29T01:04:41.529Z,8.13
2022-07-29T01:07:10.205Z,8.02
2022-07-29T01:09:45.159Z,7.72
2022-07-29T01:12:18.847Z,8.00
2022-07-29T01:14:49.327Z,7.78
2022-07-29T01:17:23.685Z,7.07
2022-07-29T01:20:00.174Z,8.40
2022-07-29T01:22:37.974Z,7.45
2022-07-29T01:25:32.490Z,6.70
2022-07-29T01:28:19.618Z,7.72
2022-07-29T01:30:54.756Z,7.05
2022-07-29T01:33:45.210Z,7.35
2022-07-29T01:36:16.933Z,6.72
2022-07-29T01:38:49.353Z,6.53
2022-07-29T01:41:20.358Z,6.65
2022-07-29T01:43:53.968Z,6.80
2022-07-29T01:46:27.722Z,6.13
2022-07-29T01:48:59.926Z,6.47
2022-07-29T01:51:33.893Z,5.95
2022-07-29T01:54:07.231Z,5.90
2022-07-29T01:56:37.206Z,6.07
2022-07-29T01:59:08.883Z,6.35
2022-07-29T02:01:43.819Z,5.70
2022-07-29T02:04:33.560Z,6.40
2022-07-29T02:07:05.944Z,6.82
2022-07-29T02:09:40.119Z,5.10
2022-07-29T02:12:09.565Z,6.68
2022-07-29T02:14:42.483Z,5.90
2022-07-29T02:17:14.259Z,5.35
2022-07-29T02:19:45.350Z,5.28
2022-07-29T02:22:14.869Z,4.60
2022-07-29T02:24:44.322Z,5.20
2022-07-29T02:27:14.017Z,5.30
2022-07-29T02:29:42.204Z,4.95
2022-07-29T02:32:14.814Z,5.70
2022-07-29T02:34:44.537Z,5.72
2022-07-29T02:37:14.073Z,6.05
2022-07-29T02:39:45.889Z,6.03
2022-07-29T02:42:17.599Z,7.00
2022-07-29T02:44:46.103Z,6.97
2022-07-29T02:47:21.295Z,6.95
2022-07-29T02:49:57.288Z,6.63
2022-07-29T02:52:29.485Z,7.28
2022-07-29T02:55:02.074Z,7.60
2022-07-29T02:57:34.951Z,7.45
2022-07-29T03:00:07.061Z,6.60
2022-07-29T03:02:40.167Z,6.43
2022-07-29T03:05:11.454Z,5.93
2022-07-29T03:07:42.547Z,6.25
2022-07-29T03:10:13.665Z,5.60
2022-07-29T03:12:43.126Z,5.35
2022-07-29T03:15:13.050Z,5.80
2022-07-29T03:17:43.977Z,5.60
2022-07-29T03:20:39.852Z,5.45
2022-07-29T03:23:08.476Z,5.65
2022-07-29T03:25:37.144Z,5.82
2022-07-29T03:28:05.444Z,4.45
2022-07-29T03:30:33.486Z,5.10
2022-07-29T03:33:03.261Z,5.35
2022-07-29T03:35:42.624Z,5.20
2022-07-29T03:38:10.841Z,5.32
2022-07-29T03:40:44.895Z,4.65
2022-07-29T03:43:15.368Z,6.10
2022-07-29T03:45:46.749Z,5.78
2022-07-29T03:48:18.740Z,5.93
2022-07-29T03:50:47.399Z,5.25
2022-07-29T03:53:15.979Z,6.22
2022-07-29T03:55:47.416Z,5.40
2022-07-29T03:58:17.495Z,5.85
2022-07-29T04:00:46.871Z,5.65
2022-07-29T04:03:16.625Z,5.25
2022-07-29T04:05:44.824Z,5.88
2022-07-29T04:08:13.117Z,6.15
2022-07-29T04:10:41.120Z,5.28
2022-07-29T04:13:09.141Z,5.53
2022-07-29T04:15:37.198Z,4.95
2022-07-29T04:18:05.331Z,6.82
2022-07-29T04:20:34.786Z,6.30
2022-07-29T04:23:02.765Z,5.88
2022-07-29T04:25:30.925Z,6.00
2022-07-29T04:28:04.902Z,6.55
2022-07-29T04:30:34.520Z,6.80
2022-07-29T04:33:03.118Z,7.00
2022-07-29T04:35:36.661Z,5.88
2022-07-29T04:38:15.842Z,6.78
2022-07-29T04:40:45.489Z,7.38
2022-07-29T04:43:15.936Z,7.90
2022-07-29T04:45:44.125Z,7.95
2022-07-29T04:48:12.233Z,7.10
2022-07-29T04:50:40.847Z,7.80
2022-07-29T04:53:10.276Z,7.05
2022-07-29T04:55:39.082Z,7.20
2022-07-29T04:58:08.403Z,7.25
2022-07-29T05:00:36.733Z,8.48
2022-07-29T05:03:05.266Z,7.90
2022-07-29T05:05:33.729Z,7.80
2022-07-29T05:08:01.934Z,8.57
2022-07-29T05:10:31.597Z,7.70
2022-07-29T05:12:59.659Z,7.70
2022-07-29T05:15:27.996Z,7.90
2022-07-29T05:17:56.010Z,7.13
2022-07-29T05:20:27.598Z,7.53
2022-07-29T05:22:56.070Z,8.43
2022-07-29T05:25:24.096Z,7.38
2022-07-29T05:28:13.003Z,8.15
2022-07-29T05:30:41.402Z,7.93
2022-07-29T05:33:09.436Z,7.40
2022-07-29T05:36:00.666Z,7.88
2022-07-29T05:38:29.220Z,8.25
2022-07-29T05:40:59.580Z,7.50
2022-07-29T05:43:29.495Z,8.07
2022-07-29T05:45:57.926Z,7.72
2022-07-29T05:48:26.379Z,7.57
2022-07-29T05:50:54.585Z,7.25
2022-07-29T05:53:22.858Z,7.78
2022-07-29T05:55:51.709Z,6.68
2022-07-29T05:58:20.134Z,6.97
2022-07-29T06:00:49.606Z,6.50
2022-07-29T06:03:17.765Z,7.45
2022-07-29T06:05:46.132Z,8.63
2022-07-29T06:08:14.162Z,7.40
2022-07-29T06:10:42.255Z,6.93
2022-07-29T06:13:10.254Z,7.63
2022-07-29T06:15:38.492Z,7.63
2022-07-29T06:18:10.289Z,7.57
2022-07-29T06:20:39.496Z,8.90
2022-07-29T06:23:10.985Z,7.18
2022-07-29T06:25:40.568Z,6.82
2022-07-29T06:28:08.711Z,8.03
2022-07-29T06:30:36.867Z,8.20
2022-07-29T06:33:05.353Z,8.03
2022-07-29T06:35:42.337Z,7.70
2022-07-29T06:38:31.686Z,7.10
2022-07-29T06:41:03.394Z,8.93
2022-07-29T06:43:35.094Z,8.50
2022-07-29T06:46:05.043Z,7.67
2022-07-29T06:48:34.748Z,8.23
2022-07-29T06:51:04.847Z,7.05
2022-07-29T06:53:34.305Z,6.70
2022-07-29T06:56:06.245Z,7.30
2022-07-29T06:58:34.656Z,7.77
2022-07-29T07:01:04.440Z,7.80
2022-07-29T07:03:32.793Z,7.70
2022-07-29T07:06:01.417Z,6.80
2022-07-29T07:08:30.818Z,7.13
2022-07-29T07:10:59.127Z,6.57
2022-07-29T07:13:27.312Z,6.63
2022-07-29T07:15:55.559Z,7.80
2022-07-29T07:18:23.597Z,7.43
2022-07-29T07:20:51.929Z,7.50
2022-07-29T07:23:23.145Z,7.27
2022-07-29T07:25:53.669Z,6.47
2022-07-29T07:28:24.577Z,6.60
2022-07-29T07:30:53.489Z,6.30
2022-07-29T07:33:21.711Z,7.10
2022-07-29T07:35:49.887Z,6.83
2022-07-29T07:38:17.955Z,7.07
2022-07-29T07:40:47.458Z,6.27
2022-07-29T07:43:16.879Z,7.00
2022-07-29T07:45:45.345Z,7.07
2022-07-29T07:48:13.528Z,6.63
2022-07-29T07:50:41.602Z,7.60
2022-07-29T07:53:09.967Z,5.63
2022-07-29T07:58:32.164Z,6.40
2022-07-29T08:01:00.284Z,7.60
2022-07-29T08:03:28.415Z,7.57
2022-07-29T08:05:56.807Z,6.77
2022-07-29T08:08:24.982Z,8.20
2022-07-29T08:10:56.829Z,7.60
2022-07-29T08:13:26.313Z,7.10
2022-07-29T08:16:00.714Z,6.27
2022-07-29T08:18:30.390Z,6.80
2022-07-29T08:20:59.098Z,7.20
2022-07-29T08:23:32.981Z,7.07
2022-07-29T08:26:16.160Z,7.00
2022-07-29T08:28:46.825Z,5.70
2022-07-29T08:31:16.762Z,5.63
2022-07-29T08:33:45.303Z,8.00
2022-07-29T08:36:14.261Z,6.60
2022-07-29T08:38:42.529Z,6.43
2022-07-29T08:41:10.698Z,6.60
2022-07-29T08:43:39.334Z,7.23
2022-07-29T08:46:07.624Z,6.77
2022-07-29T08:48:38.938Z,5.63
2022-07-29T08:51:09.659Z,7.93
2022-07-29T08:53:39.229Z,8.13
2022-07-29T08:56:08.139Z,7.70
2022-07-29T08:58:38.341Z,7.40
2022-07-29T09:01:07.760Z,6.63
2022-07-29T09:03:43.579Z,7.30
2022-07-29T09:06:15.762Z,6.73
2022-07-29T09:08:44.382Z,5.83
2022-07-29T09:11:13.606Z,7.47
2022-07-29T09:13:42.185Z,6.67
2022-07-29T09:16:10.855Z,7.00
2022-07-29T09:18:42.103Z,6.60
2022-07-29T09:21:30.072Z,7.30
2022-07-29T09:24:07.959Z,6.83
2022-07-29T09:26:41.423Z,6.90
2022-07-29T09:29:12.088Z,6.17
2022-07-29T09:31:42.753Z,6.90
2022-07-29T09:34:13.672Z,6.67
2022-07-29T09:36:43.023Z,6.30
2022-07-29T09:39:11.294Z,6.30
2022-07-29T09:41:48.650Z,6.77
2022-07-29T09:44:17.258Z,6.70
2022-07-29T09:47:09.515Z,6.90
2022-07-29T09:49:53.850Z,7.17
2022-07-29T09:52:22.551Z,6.77
2022-07-29T09:54:51.262Z,6.87
2022-07-29T09:57:31.132Z,5.73
2022-07-29T10:00:01.411Z,6.10
2022-07-29T10:02:42.150Z,6.20
2022-07-29T10:05:22.364Z,6.30
2022-07-29T10:07:54.121Z,6.00
2022-07-29T10:10:25.346Z,5.90
2022-07-29T10:12:56.825Z,6.43
2022-07-29T10:15:28.311Z,5.87
2022-07-29T10:17:58.158Z,5.73
2022-07-29T10:20:29.068Z,5.77
2022-07-29T10:22:57.799Z,5.50
2022-07-29T10:25:26.752Z,6.57
2022-07-29T10:27:55.870Z,5.50
2022-07-29T10:30:25.766Z,5.27
2022-07-29T10:33:10.552Z,6.10
2022-07-29T10:36:09.650Z,5.53
2022-07-29T10:38:49.678Z,5.70
2022-07-29T10:41:43.868Z,5.93
2022-07-29T10:44:19.112Z,5.40
2022-07-29T10:46:48.897Z,5.53
2022-07-29T10:49:18.863Z,6.40
2022-07-29T10:52:00.222Z,5.60
2022-07-29T10:54:51.671Z,6.37
2022-07-29T10:57:54.014Z,6.07
2022-07-29T11:00:41.497Z,6.63
2022-07-29T11:03:50.447Z,6.80
2022-07-29T11:06:26.166Z,6.57
2022-07-29T11:09:25.749Z,6.30
2022-07-29T11:12:04.397Z,6.50
2022-07-29T11:15:07.985Z,6.10
2022-07-29T11:18:14.982Z,5.20
2022-07-29T11:20:54.835Z,5.43
2022-07-29T11:23:26.394Z,6.47
2022-07-29T11:26:34.418Z,5.50
2022-07-29T11:29:30.094Z,5.77
2022-07-29T11:32:11.062Z,6.20
2022-07-29T11:34:46.860Z,5.80
2022-07-29T11:37:27.676Z,6.50
2022-07-29T11:40:45.932Z,5.73
2022-07-29T11:43:48.174Z,6.43
2022-07-29T11:46:47.164Z,5.70
2022-07-29T11:49:22.109Z,6.30
2022-07-29T11:52:06.184Z,7.10
2022-07-29T11:54:58.211Z,7.63
2022-07-29T11:57:35.946Z,7.60
2022-07-29T12:00:12.672Z,7.40
2022-07-29T12:02:48.480Z,7.20
2022-07-29T12:05:36.422Z,8.27
2022-07-29T12:08:12.635Z,6.80
2022-07-29T12:10:43.910Z,7.50
2022-07-29T12:13:13.264Z,7.83
2022-07-29T12:15:47.344Z,6.10
2022-07-29T12:18:18.849Z,6.90
2022-07-29T12:20:48.314Z,6.17
2022-07-29T12:23:18.871Z,6.13
2022-07-29T12:25:49.749Z,5.23
2022-07-29T12:28:26.814Z,5.83
2022-07-29T12:30:57.689Z,5.33
2022-07-29T12:33:27.584Z,5.73
2022-07-29T12:36:06.883Z,3.97
2022-07-29T12:38:37.072Z,6.20
2022-07-29T12:41:05.544Z,6.60
2022-07-29T12:43:34.091Z,6.20
2022-07-29T12:46:16.230Z,6.90
2022-07-29T12:48:45.643Z,5.87
2022-07-29T12:51:15.624Z,6.07
2022-07-29T12:53:44.056Z,6.53
2022-07-29T12:56:41.859Z,6.10
2022-07-29T12:59:18.736Z,5.97
2022-07-29T13:01:53.281Z,6.13
2022-07-29T13:04:28.931Z,6.13
2022-07-29T13:07:04.607Z,6.03
2022-07-29T13:09:41.712Z,5.60
2022-07-29T13:12:11.109Z,6.40
2022-07-29T13:14:41.860Z,6.07
2022-07-29T13:17:13.697Z,5.87
2022-07-29T13:19:43.474Z,6.57
2022-07-29T13:22:12.746Z,5.60
2022-07-29T13:24:52.491Z,6.10
2022-07-29T13:27:22.219Z,6.10
2022-07-29T13:29:52.343Z,5.87
2022-07-29T13:32:27.709Z,6.20
2022-07-29T13:34:57.228Z,5.73
2022-07-29T13:37:25.747Z,6.40
2022-07-29T13:39:55.272Z,7.13
2022-07-29T13:42:23.674Z,6.30
2022-07-29T13:44:52.648Z,6.00
2022-07-29T13:47:31.831Z,8.57
2022-07-29T13:50:01.686Z,5.70
2022-07-29T13:52:30.584Z,5.23
2022-07-29T13:54:59.261Z,5.87
2022-07-29T13:57:27.940Z,6.60
2022-07-29T13:59:56.272Z,5.70
2022-07-29T14:02:26.378Z,5.63
2022-07-29T14:04:55.190Z,5.03
2022-07-29T14:07:24.048Z,5.60
2022-07-29T14:09:52.356Z,5.13
2022-07-29T14:12:20.710Z,5.30
2022-07-29T14:14:49.113Z,5.47
2022-07-29T14:17:17.921Z,5.57
2022-07-29T14:19:47.665Z,5.80
2022-07-29T14:22:16.076Z,4.93
2022-07-29T14:24:44.695Z,5.23
2022-07-29T14:27:13.170Z,6.13
2022-07-29T14:29:41.371Z,5.90
2022-07-29T14:32:11.363Z,5.93
2022-07-29T14:34:40.606Z,5.77
2022-07-29T14:37:15.904Z,5.20
2022-07-29T14:39:44.483Z,4.73
2022-07-29T14:42:13.958Z,3.50
2022-07-29T14:44:42.964Z,4.00
2022-07-29T14:47:13.152Z,3.50
2022-07-29T14:49:41.666Z,3.77
2022-07-29T14:52:11.560Z,3.63
2022-07-29T14:54:39.943Z,3.30
2022-07-29T14:57:08.492Z,3.67
2022-07-29T14:59:37.051Z,3.63
2022-07-29T15:02:05.440Z,3.50
2022-07-29T15:04:33.860Z,3.40
2022-07-29T15:07:02.348Z,3.87
2022-07-29T15:09:32.239Z,4.97
2022-07-29T15:12:05.664Z,4.00
2022-07-29T15:14:34.143Z,4.03
2022-07-29T15:17:40.579Z,4.20
2022-07-29T15:20:09.681Z,4.03
2022-07-29T15:22:39.017Z,3.67
2022-07-29T15:25:09.578Z,3.77
2022-07-29T15:27:38.052Z,3.57
2022-07-29T15:30:07.420Z,4.27
2022-07-29T15:32:36.135Z,3.80
2022-07-29T15:35:05.259Z,3.70
2022-07-29T15:37:48.598Z,3.97
2022-07-29T15:40:19.301Z,3.63
2022-07-29T15:42:50.676Z,4.17
2022-07-29T15:45:18.913Z,3.47
2022-07-29T15:47:46.989Z,3.63
2022-07-29T15:50:16.742Z,4.17
2022-07-29T15:52:45.422Z,4.67
2022-07-29T15:55:15.587Z,4.07
2022-07-29T15:57:45.236Z,4.30
2022-07-29T16:00:17.189Z,4.40
2022-07-29T16:02:45.637Z,4.80
2022-07-29T16:05:13.908Z,4.20
2022-07-29T16:07:41.997Z,4.23
2022-07-29T16:10:10.391Z,4.90
2022-07-29T16:12:38.840Z,4.30
2022-07-29T16:15:10.457Z,4.47
2022-07-29T16:17:39.336Z,5.07
2022-07-29T16:20:14.130Z,4.37
2022-07-29T16:22:42.689Z,4.10
2022-07-29T16:25:13.561Z,4.30
2022-07-29T16:27:42.064Z,4.30
2022-07-29T16:30:12.415Z,4.63
2022-07-29T16:32:41.878Z,4.50
2022-07-29T16:35:11.142Z,4.43
2022-07-29T16:37:39.531Z,3.80
2022-07-29T16:40:11.587Z,4.30
2022-07-29T16:42:46.988Z,3.50
2022-07-29T16:45:21.258Z,4.03
2022-07-29T16:47:49.941Z,3.93
2022-07-29T16:50:18.217Z,4.70
2022-07-29T16:52:46.785Z,4.10
2022-07-29T16:55:15.317Z,4.00
2022-07-29T16:57:44.031Z,4.13
2022-07-29T17:00:13.702Z,4.00
2022-07-29T17:02:44.055Z,4.23
2022-07-29T17:05:13.499Z,3.77
2022-07-29T17:07:41.785Z,4.67
2022-07-29T17:10:11.065Z,3.60
2022-07-29T17:12:40.460Z,4.30
2022-07-29T17:15:11.865Z,4.60
2022-07-29T17:17:55.542Z,4.53
2022-07-29T17:20:27.368Z,3.73
2022-07-29T17:22:56.408Z,4.07
2022-07-29T17:25:24.743Z,3.50
2022-07-29T17:28:22.002Z,3.30
2022-07-29T17:30:50.050Z,3.73
2022-07-29T17:33:18.125Z,3.67
2022-07-29T17:36:05.105Z,3.70
2022-07-29T17:38:33.074Z,3.53
2022-07-29T17:43:50.638Z,3.40
2022-07-29T17:46:19.341Z,3.50
2022-07-29T17:48:47.668Z,3.30
2022-07-29T17:51:17.188Z,3.50
2022-07-29T17:53:45.539Z,3.30
2022-07-29T17:56:14.121Z,3.10
2022-07-29T17:58:42.818Z,3.60
2022-07-29T18:01:11.142Z,3.17
2022-07-29T18:03:39.180Z,3.50
2022-07-29T18:06:07.539Z,3.27
2022-07-29T18:08:37.600Z,3.63
2022-07-29T18:11:05.945Z,3.97
2022-07-29T18:13:34.383Z,3.60
2022-07-29T18:16:02.487Z,3.50
2022-07-29T18:18:30.589Z,3.77
2022-07-29T18:20:58.682Z,4.33
2022-07-29T18:23:26.681Z,3.67
2022-07-29T18:25:56.122Z,4.50
2022-07-29T18:28:24.394Z,3.20
2022-07-29T18:30:52.678Z,3.30
2022-07-29T18:33:22.306Z,3.67
2022-07-29T18:36:10.756Z,3.90
2022-07-29T18:38:40.589Z,3.37
2022-07-29T18:41:09.894Z,3.37
2022-07-29T18:43:38.044Z,3.33
2022-07-29T18:46:06.687Z,3.60
2022-07-29T18:48:35.453Z,3.10
2022-07-29T18:51:03.524Z,3.13
2022-07-29T18:53:38.012Z,3.97
2022-07-29T18:56:06.170Z,3.97
2022-07-29T18:58:37.211Z,3.20
2022-07-29T19:01:05.225Z,3.77
2022-07-29T19:03:33.266Z,3.57
2022-07-29T19:06:01.398Z,3.70
2022-07-29T19:08:29.493Z,3.60
2022-07-29T19:10:57.490Z,3.40
2022-07-29T19:13:25.757Z,3.23
2022-07-29T19:15:55.258Z,3.50
2022-07-29T19:18:24.280Z,3.60
2022-07-29T19:20:52.457Z,4.33
2022-07-29T19:23:20.814Z,3.60
2022-07-29T19:25:53.806Z,3.53
2022-07-29T19:28:22.408Z,3.10
2022-07-29T19:30:50.782Z,3.70
2022-07-29T19:33:21.033Z,3.97
2022-07-29T19:35:54.356Z,3.30
2022-07-29T19:38:23.730Z,3.83
2022-07-29T19:40:52.088Z,3.87
2022-07-29T19:43:51.727Z,3.30
2022-07-29T19:46:08.464Z,3.40
2022-07-29T19:48:38.208Z,4.00
2022-07-29T19:51:06.635Z,4.17
2022-07-29T19:53:34.932Z,3.80
2022-07-29T19:56:03.225Z,3.73
2022-07-29T19:58:31.531Z,3.70
2022-07-29T20:01:00.635Z,4.23
2022-07-29T20:03:28.922Z,3.30
2022-07-29T20:05:58.707Z,3.53
2022-07-29T20:08:27.153Z,3.33
2022-07-29T20:10:56.157Z,3.50
2022-07-29T20:13:24.235Z,3.37
2022-07-29T20:15:52.389Z,3.93
2022-07-29T20:18:20.486Z,3.20
2022-07-29T20:20:49.692Z,3.87
2022-07-29T20:23:22.194Z,4.07
2022-07-29T20:25:50.891Z,3.47
2022-07-29T20:28:19.150Z,3.60
2022-07-29T20:30:47.640Z,3.33
2022-07-29T20:33:16.258Z,3.87
2022-07-29T20:35:44.690Z,3.60
2022-07-29T20:38:17.819Z,3.50
2022-07-29T20:40:47.732Z,3.90
2022-07-29T20:43:15.988Z,4.60
2022-07-29T20:45:44.150Z,3.60
2022-07-29T20:48:13.865Z,3.70
2022-07-29T20:50:42.855Z,3.77
2022-07-29T20:53:11.041Z,3.80
2022-07-29T20:55:39.604Z,3.70
2022-07-29T20:58:09.154Z,3.73
2022-07-29T21:00:37.561Z,3.50
2022-07-29T21:03:05.790Z,3.60
2022-07-29T21:05:34.040Z,3.47
2022-07-29T21:08:02.205Z,4.20
2022-07-29T21:10:30.630Z,4.20
2022-07-29T21:12:58.766Z,3.77
2022-07-29T21:15:29.764Z,3.87
2022-07-29T21:18:02.156Z,3.70
2022-07-29T21:20:31.110Z,3.90
2022-07-29T21:22:59.361Z,3.73
2022-07-29T21:25:28.722Z,4.07
2022-07-29T21:28:14.000Z,4.30
2022-07-29T21:30:43.560Z,3.70
2022-07-29T21:33:11.754Z,4.10
2022-07-29T21:36:10.577Z,3.93
2022-07-29T21:38:28.769Z,3.57
2022-07-29T21:40:58.061Z,3.73
2022-07-29T21:43:52.265Z,4.60
2022-07-29T21:46:24.543Z,4.90
2022-07-29T21:48:52.874Z,4.10
2022-07-29T21:51:21.140Z,3.88
2022-07-29T21:53:50.590Z,4.60
2022-07-29T21:56:22.557Z,5.00
2022-07-29T21:58:55.628Z,4.45
2022-07-29T22:01:25.919Z,3.77
2022-07-29T22:03:54.278Z,4.63
2022-07-29T22:06:23.069Z,4.28
2022-07-29T22:08:51.795Z,4.53
2022-07-29T22:11:20.287Z,4.33
2022-07-29T22:13:48.479Z,4.70
2022-07-29T22:16:16.661Z,5.50
2022-07-29T22:18:47.187Z,4.03
2022-07-29T22:21:15.828Z,4.68
2022-07-29T22:23:44.514Z,5.28
2022-07-29T22:26:12.661Z,4.72
2022-07-29T22:28:40.824Z,4.47
2022-07-29T22:31:09.127Z,5.10
2022-07-29T22:33:37.314Z,4.67
2022-07-29T22:36:07.445Z,5.53
2022-07-29T22:38:35.941Z,5.50
2022-07-29T22:41:04.105Z,6.50
2022-07-29T22:43:32.172Z,5.22
2022-07-29T22:46:00.500Z,5.75
2022-07-29T22:48:28.733Z,5.25
2022-07-29T22:50:56.874Z,5.50
2022-07-29T22:53:27.148Z,5.22
2022-07-29T22:55:55.298Z,5.45
2022-07-29T22:58:23.425Z,6.30
2022-07-29T23:00:51.583Z,5.80
2022-07-29T23:03:19.877Z,5.80
2022-07-29T23:05:48.065Z,6.95
2022-07-29T23:08:16.166Z,6.25
2022-07-29T23:10:45.981Z,5.30
2022-07-29T23:13:14.312Z,6.35
2022-07-29T23:15:45.082Z,5.57
2022-07-29T23:18:13.272Z,6.72
2022-07-29T23:20:41.463Z,6.07
2022-07-29T23:23:09.588Z,6.90
2022-07-29T23:25:38.032Z,7.70
2022-07-29T23:28:11.555Z,6.25
2022-07-29T23:30:41.495Z,6.40
2022-07-29T23:33:10.255Z,6.10
2022-07-29T23:35:38.510Z,5.63
2022-07-29T23:38:06.755Z,5.57
2022-07-29T23:40:55.264Z,5.07
2022-07-29T23:43:24.893Z,5.70
2022-07-29T23:45:53.665Z,5.60
2022-07-29T23:48:22.019Z,5.25
2022-07-29T23:50:50.209Z,5.28
2022-07-29T23:53:18.384Z,5.90
2022-07-29T23:55:46.581Z,5.65
2022-07-29T23:58:14.845Z,5.70
